createdAt,value
2017-05-26T00:01:50.424Z,19.28
2017-05-26T00:04:17.103Z,22.28
2017-05-26T00:06:43.812Z,17.02
2017-05-26T00:09:10.503Z,17.52
2017-05-26T00:11:37.187Z,19.57
2017-05-26T00:14:03.880Z,22.02
2017-05-26T00:16:30.561Z,17.83
2017-05-26T00:18:57.253Z,24.20
2017-05-26T00:21:23.937Z,22.90
2017-05-26T00:23:50.627Z,28.23
2017-05-26T00:26:17.322Z,29.65
2017-05-26T00:28:44.008Z,22.57
2017-05-26T00:31:10.689Z,24.50
2017-05-26T00:33:37.372Z,23.12
2017-05-26T00:36:04.052Z,26.83
2017-05-26T00:38:30.760Z,26.47
2017-05-26T00:40:57.462Z,25.72
2017-05-26T00:43:24.145Z,24.53
2017-05-26T00:45:50.837Z,28.70
2017-05-26T00:48:17.523Z,24.52
2017-05-26T00:50:44.205Z,24.68
2017-05-26T00:53:10.895Z,26.33
2017-05-26T00:55:37.580Z,32.72
2017-05-26T00:58:04.263Z,26.75
2017-05-26T01:00:30.976Z,27.25
2017-05-26T01:02:57.658Z,34.00
2017-05-26T01:05:24.336Z,28.08
2017-05-26T01:07:51.023Z,29.17
2017-05-26T01:10:17.716Z,36.00
2017-05-26T01:12:44.398Z,29.17
2017-05-26T01:15:11.072Z,34.27
2017-05-26T01:17:37.774Z,27.72
2017-05-26T01:20:04.460Z,26.85
2017-05-26T01:22:31.175Z,34.33
2017-05-26T01:24:57.861Z,30.27
2017-05-26T01:27:24.536Z,34.82
2017-05-26T01:29:51.216Z,32.30
2017-05-26T01:32:17.901Z,31.88
2017-05-26T01:34:44.608Z,28.13
2017-05-26T01:37:11.286Z,32.18
2017-05-26T01:39:37.996Z,34.33
2017-05-26T01:42:04.678Z,31.80
2017-05-26T01:44:34.096Z,34.38
2017-05-26T01:47:00.799Z,31.78
2017-05-26T01:49:27.512Z,35.00
2017-05-26T01:51:54.210Z,29.55
2017-05-26T01:54:20.894Z,32.77
2017-05-26T01:56:47.577Z,35.35
2017-05-26T01:59:14.272Z,31.75
2017-05-26T02:01:40.986Z,35.08
2017-05-26T02:04:07.668Z,32.90
2017-05-26T02:06:34.376Z,30.50
2017-05-26T02:09:01.493Z,31.33
2017-05-26T02:11:28.204Z,31.40
2017-05-26T02:13:54.884Z,33.18
2017-05-26T02:16:21.596Z,34.32
2017-05-26T02:18:48.285Z,33.45
2017-05-26T02:21:14.966Z,31.88
2017-05-26T02:23:41.644Z,32.53
2017-05-26T02:26:08.320Z,32.72
2017-05-26T02:28:35.024Z,28.25
2017-05-26T02:31:01.709Z,29.57
2017-05-26T02:33:28.424Z,30.08
2017-05-26T02:35:55.121Z,28.93
2017-05-26T02:38:21.831Z,25.73
2017-05-26T02:40:48.512Z,25.10
2017-05-26T02:43:15.188Z,25.70
2017-05-26T02:45:41.868Z,33.78
2017-05-26T02:48:08.549Z,27.55
2017-05-26T02:50:35.230Z,29.28
2017-05-26T02:53:01.908Z,27.25
2017-05-26T02:55:28.615Z,32.02
2017-05-26T02:57:55.294Z,31.13
2017-05-26T03:00:22.000Z,31.78
2017-05-26T03:02:48.677Z,35.97
2017-05-26T03:05:15.393Z,41.33
2017-05-26T03:07:42.079Z,36.27
2017-05-26T03:10:08.756Z,36.77
2017-05-26T03:12:35.431Z,33.02
2017-05-26T03:15:02.116Z,36.77
2017-05-26T03:17:28.799Z,28.17
2017-05-26T03:19:55.480Z,33.37
2017-05-26T03:22:22.185Z,38.42
2017-05-26T03:24:48.865Z,33.73
2017-05-26T03:27:15.568Z,32.15
2017-05-26T03:29:42.252Z,32.37
2017-05-26T03:32:08.961Z,37.83
2017-05-26T03:34:35.646Z,37.97
2017-05-26T03:37:02.331Z,33.02
2017-05-26T03:39:29.014Z,37.88
2017-05-26T03:41:55.691Z,32.98
2017-05-26T03:44:22.382Z,35.90
2017-05-26T03:46:49.066Z,32.87
2017-05-26T03:49:15.770Z,35.73
2017-05-26T03:51:42.443Z,36.23
2017-05-26T03:54:09.164Z,37.47
2017-05-26T03:56:35.836Z,34.80
2017-05-26T03:59:02.512Z,26.82
2017-05-26T04:01:29.210Z,30.10
2017-05-26T04:03:55.888Z,26.98
2017-05-26T04:06:22.568Z,23.78
2017-05-26T04:08:49.259Z,23.82
2017-05-26T04:11:15.968Z,33.17
2017-05-26T04:13:42.655Z,34.50
2017-05-26T04:16:09.359Z,39.42
2017-05-26T04:18:36.043Z,33.85
2017-05-26T04:21:02.720Z,39.73
2017-05-26T04:23:29.400Z,38.00
2017-05-26T04:25:56.076Z,39.53
2017-05-26T04:28:22.760Z,34.03
2017-05-26T04:30:49.444Z,33.12
2017-05-26T04:33:16.128Z,35.03
2017-05-26T04:35:42.808Z,31.87
2017-05-26T04:38:09.515Z,31.67
2017-05-26T04:40:36.193Z,36.37
2017-05-26T04:43:02.900Z,27.18
2017-05-26T04:45:29.581Z,30.70
2017-05-26T04:47:56.264Z,25.33
2017-05-26T04:50:22.948Z,25.70
2017-05-26T04:52:49.636Z,27.15
2017-05-26T04:55:16.316Z,25.27
2017-05-26T04:57:42.997Z,27.75
2017-05-26T05:00:09.685Z,23.85
2017-05-26T05:02:36.366Z,31.93
2017-05-26T05:05:03.070Z,31.87
2017-05-26T05:07:29.758Z,32.53
2017-05-26T05:09:56.461Z,33.70
2017-05-26T05:12:23.141Z,35.27
2017-05-26T05:14:49.820Z,36.97
2017-05-26T05:17:16.495Z,30.52
2017-05-26T05:19:43.196Z,38.03
2017-05-26T05:22:09.908Z,36.80
2017-05-26T05:24:36.584Z,35.55
2017-05-26T05:27:03.273Z,33.58
2017-05-26T05:29:29.959Z,33.32
2017-05-26T05:31:56.646Z,36.98
2017-05-26T05:34:23.326Z,38.98
2017-05-26T05:36:50.032Z,41.13
2017-05-26T05:39:16.751Z,42.15
2017-05-26T05:41:43.434Z,40.15
2017-05-26T05:44:10.115Z,41.05
2017-05-26T05:46:36.815Z,37.67
2017-05-26T05:49:03.496Z,39.10
2017-05-26T05:51:30.203Z,41.73
2017-05-26T05:53:56.889Z,39.25
2017-05-26T05:56:23.603Z,41.40
2017-05-26T05:58:50.285Z,36.02
2017-05-26T06:01:16.979Z,44.68
2017-05-26T06:03:43.656Z,46.13
2017-05-26T06:06:10.344Z,38.30
2017-05-26T06:08:38.802Z,38.63
2017-05-26T06:11:05.493Z,38.10
2017-05-26T06:13:32.201Z,40.53
2017-05-26T06:15:59.114Z,41.63
2017-05-26T06:18:25.808Z,38.67
2017-05-26T06:20:52.493Z,35.33
2017-05-26T06:23:19.168Z,38.98
2017-05-26T06:25:45.871Z,38.20
2017-05-26T06:28:14.730Z,38.05
2017-05-26T06:30:41.436Z,40.10
2017-05-26T06:33:08.747Z,37.48
2017-05-26T06:35:35.467Z,41.77
2017-05-26T06:38:02.190Z,42.40
2017-05-26T06:40:28.867Z,39.03
2017-05-26T06:42:55.549Z,41.42
2017-05-26T06:45:22.249Z,36.38
2017-05-26T06:47:48.936Z,37.70
2017-05-26T06:50:15.619Z,40.55
2017-05-26T06:52:42.386Z,36.68
2017-05-26T06:55:09.052Z,33.87
2017-05-26T06:57:35.737Z,33.80
2017-05-26T07:00:02.443Z,37.40
2017-05-26T07:02:29.127Z,38.62
2017-05-26T07:04:55.825Z,44.15
2017-05-26T07:07:22.504Z,34.65
2017-05-26T07:09:49.189Z,33.23
2017-05-26T07:12:15.864Z,34.72
2017-05-26T07:14:42.545Z,34.32
2017-05-26T07:17:09.232Z,29.78
2017-05-26T07:19:35.968Z,33.83
2017-05-26T07:22:02.664Z,34.67
2017-05-26T07:24:29.359Z,31.98
2017-05-26T07:26:56.036Z,31.75
2017-05-26T07:29:22.748Z,32.43
2017-05-26T07:31:49.437Z,31.25
2017-05-26T07:34:16.124Z,32.25
2017-05-26T07:36:42.818Z,33.00
2017-05-26T07:39:10.324Z,31.96
2017-05-26T07:41:37.033Z,29.52
2017-05-26T07:44:03.720Z,35.04
2017-05-26T07:46:30.428Z,30.56
2017-05-26T07:48:57.117Z,26.24
2017-05-26T07:51:23.837Z,28.06
2017-05-26T07:53:50.537Z,28.66
2017-05-26T07:56:17.216Z,27.78
2017-05-26T07:58:43.909Z,27.38
2017-05-26T08:01:10.626Z,27.16
2017-05-26T08:03:37.310Z,30.20
2017-05-26T08:06:03.996Z,31.32
2017-05-26T08:08:30.685Z,29.68
2017-05-26T08:10:57.368Z,31.46
2017-05-26T08:13:24.086Z,30.76
2017-05-26T08:15:50.768Z,30.90
2017-05-26T08:18:17.444Z,31.04
2017-05-26T08:20:44.152Z,29.62
2017-05-26T08:23:10.832Z,28.70
2017-05-26T08:25:37.516Z,27.00
2017-05-26T08:28:04.196Z,28.04
2017-05-26T08:30:30.881Z,26.84
2017-05-26T08:32:57.569Z,28.30
2017-05-26T08:35:24.258Z,26.40
2017-05-26T08:37:50.955Z,27.12
2017-05-26T08:40:17.681Z,25.22
2017-05-26T08:42:44.389Z,24.18
2017-05-26T08:45:11.072Z,24.12
2017-05-26T08:47:37.760Z,23.46
2017-05-26T08:50:04.444Z,26.72
2017-05-26T08:52:31.155Z,26.80
2017-05-26T08:54:57.853Z,26.56
2017-05-26T08:57:24.566Z,28.96
2017-05-26T08:59:51.256Z,28.18
2017-05-26T09:02:17.984Z,29.48
2017-05-26T09:04:44.692Z,28.10
2017-05-26T09:07:11.381Z,25.62
2017-05-26T09:09:38.072Z,28.12
2017-05-26T09:12:04.753Z,30.68
2017-05-26T09:14:31.457Z,32.48
2017-05-26T09:16:58.145Z,30.28
2017-05-26T09:19:24.865Z,27.06
2017-05-26T09:21:51.548Z,28.30
2017-05-26T09:24:18.262Z,25.24
2017-05-26T09:26:44.948Z,31.24
2017-05-26T09:29:11.628Z,29.76
2017-05-26T09:31:38.308Z,29.82
2017-05-26T09:34:04.988Z,31.36
2017-05-26T09:36:31.697Z,28.42
2017-05-26T09:38:58.390Z,29.92
2017-05-26T09:41:25.103Z,28.50
2017-05-26T09:43:51.789Z,29.00
2017-05-26T09:46:18.506Z,34.10
2017-05-26T09:48:45.196Z,33.04
2017-05-26T09:51:11.921Z,32.24
2017-05-26T09:53:38.603Z,32.02
2017-05-26T09:56:05.276Z,30.96
2017-05-26T09:58:31.960Z,31.60
2017-05-26T10:00:58.677Z,31.80
2017-05-26T10:03:25.393Z,31.78
2017-05-26T10:05:52.076Z,31.84
2017-05-26T10:08:19.013Z,26.60
2017-05-26T10:10:45.700Z,27.94
2017-05-26T10:13:12.429Z,29.00
2017-05-26T10:15:39.116Z,26.12
2017-05-26T10:18:05.796Z,22.48
2017-05-26T10:20:32.476Z,22.60
2017-05-26T10:22:59.166Z,22.50
2017-05-26T10:25:25.877Z,22.30
2017-05-26T10:27:52.556Z,23.78
2017-05-26T10:30:19.274Z,23.90
2017-05-26T10:32:45.975Z,22.44
2017-05-26T10:35:12.663Z,23.54
2017-05-26T10:37:39.345Z,21.26
2017-05-26T10:40:06.032Z,23.56
2017-05-26T10:42:32.740Z,24.52
2017-05-26T10:44:59.425Z,22.00
2017-05-26T10:47:26.138Z,19.14
2017-05-26T10:49:52.820Z,19.44
2017-05-26T10:52:19.550Z,19.56
2017-05-26T10:54:46.229Z,19.40
2017-05-26T10:57:12.918Z,17.32
2017-05-26T10:59:39.602Z,21.46
2017-05-26T11:02:06.282Z,19.88
2017-05-26T11:04:32.968Z,18.12
2017-05-26T11:06:59.647Z,17.84
2017-05-26T11:09:26.349Z,17.58
2017-05-26T11:11:53.049Z,17.08
2017-05-26T11:14:19.759Z,17.46
2017-05-26T11:16:46.722Z,17.22
2017-05-26T11:19:13.407Z,16.46
2017-05-26T11:21:40.089Z,15.36
2017-05-26T11:24:06.775Z,15.50
2017-05-26T11:26:33.462Z,14.70
2017-05-26T11:29:00.195Z,13.00
2017-05-26T11:31:26.907Z,14.54
2017-05-26T11:33:53.588Z,15.16
2017-05-26T11:36:20.262Z,13.54
2017-05-26T11:38:46.941Z,13.26
2017-05-26T11:41:13.625Z,13.50
2017-05-26T11:43:40.308Z,12.08
2017-05-26T11:46:06.985Z,14.40
2017-05-26T11:48:33.664Z,12.94
2017-05-26T11:51:00.337Z,13.36
2017-05-26T11:53:27.048Z,11.74
2017-05-26T11:55:53.729Z,12.66
2017-05-26T11:58:20.408Z,10.50
2017-05-26T12:00:47.096Z,11.16
2017-05-26T12:03:13.781Z,11.62
2017-05-26T12:05:40.457Z,9.84
2017-05-26T12:08:07.129Z,8.40
2017-05-26T12:10:33.800Z,8.90
2017-05-26T12:13:00.485Z,10.98
2017-05-26T12:15:27.187Z,11.62
2017-05-26T12:17:53.865Z,10.62
2017-05-26T12:20:20.545Z,11.16
2017-05-26T12:22:47.223Z,11.56
2017-05-26T12:25:13.905Z,11.02
2017-05-26T12:27:40.593Z,10.04
2017-05-26T12:30:07.264Z,10.16
2017-05-26T12:32:33.940Z,11.16
2017-05-26T12:35:00.612Z,10.14
2017-05-26T12:37:27.317Z,8.82
2017-05-26T12:39:53.984Z,7.96
2017-05-26T12:42:20.656Z,10.30
2017-05-26T12:44:47.326Z,8.78
2017-05-26T12:47:13.996Z,9.02
2017-05-26T12:49:40.672Z,8.46
2017-05-26T12:52:07.348Z,9.00
2017-05-26T12:54:34.047Z,9.98
2017-05-26T12:57:00.721Z,8.34
2017-05-26T12:59:27.416Z,7.76
2017-05-26T13:01:54.088Z,8.32
2017-05-26T13:04:20.790Z,7.88
2017-05-26T13:06:47.464Z,8.82
2017-05-26T13:09:14.132Z,8.84
2017-05-26T13:11:40.800Z,7.90
2017-05-26T13:14:07.476Z,8.56
2017-05-26T13:16:34.174Z,6.84
2017-05-26T13:19:00.843Z,7.36
2017-05-26T13:21:27.544Z,7.46
2017-05-26T13:23:54.225Z,7.54
2017-05-26T13:26:20.930Z,8.84
2017-05-26T13:28:47.596Z,8.32
2017-05-26T13:31:14.273Z,7.42
2017-05-26T13:33:40.953Z,7.78
2017-05-26T13:36:07.632Z,7.30
2017-05-26T13:38:34.325Z,7.82
2017-05-26T13:41:01.005Z,7.68
2017-05-26T13:43:27.707Z,8.08
2017-05-26T13:45:54.387Z,7.88
2017-05-26T13:48:21.074Z,7.98
2017-05-26T13:50:47.742Z,6.60
2017-05-26T13:53:14.416Z,6.64
2017-05-26T13:55:41.108Z,7.40
2017-05-26T13:58:07.779Z,6.46
2017-05-26T14:00:34.448Z,7.12
2017-05-26T14:03:01.113Z,6.56
2017-05-26T14:05:27.784Z,6.16
2017-05-26T14:07:54.480Z,6.62
2017-05-26T14:10:21.147Z,5.44
2017-05-26T14:12:47.817Z,5.90
2017-05-26T14:15:14.484Z,6.06
2017-05-26T14:17:41.152Z,6.18
2017-05-26T14:20:07.824Z,6.62
2017-05-26T14:22:34.497Z,6.26
2017-05-26T14:25:01.212Z,6.32
2017-05-26T14:27:27.883Z,6.44
2017-05-26T14:29:54.580Z,6.32
2017-05-26T14:32:21.251Z,6.66
2017-05-26T14:37:20.975Z,6.06
2017-05-26T14:39:47.643Z,6.06
2017-05-26T14:42:14.584Z,7.42
2017-05-26T14:44:41.480Z,7.06
2017-05-26T14:47:08.184Z,6.56
2017-05-26T14:49:34.866Z,6.32
2017-05-26T14:52:01.555Z,7.18
2017-05-26T14:54:28.224Z,6.38
2017-05-26T14:56:54.892Z,7.24
2017-05-26T14:59:21.564Z,5.66
2017-05-26T15:01:48.232Z,6.22
2017-05-26T15:04:14.901Z,6.90
2017-05-26T15:06:41.569Z,8.88
2017-05-26T15:09:08.284Z,7.40
2017-05-26T15:11:34.959Z,6.88
2017-05-26T15:14:01.631Z,6.88
2017-05-26T15:16:28.300Z,6.82
2017-05-26T15:18:54.972Z,6.84
2017-05-26T15:21:21.640Z,6.62
2017-05-26T15:23:48.313Z,7.60
2017-05-26T15:26:14.991Z,7.12
2017-05-26T15:28:41.663Z,7.68
2017-05-26T15:31:08.356Z,7.44
2017-05-26T15:33:35.024Z,7.24
2017-05-26T15:36:01.693Z,6.84
2017-05-26T15:38:28.360Z,7.80
2017-05-26T15:40:55.024Z,7.08
2017-05-26T15:43:21.725Z,7.08
2017-05-26T15:45:48.396Z,7.88
2017-05-26T15:48:15.110Z,6.50
2017-05-26T15:50:41.809Z,7.20
2017-05-26T15:53:08.519Z,6.42
2017-05-26T15:55:35.188Z,7.72
2017-05-26T15:58:01.851Z,7.82
2017-05-26T16:00:28.540Z,6.46
2017-05-26T16:02:55.211Z,6.62
2017-05-26T16:05:21.907Z,6.70
2017-05-26T16:07:48.588Z,6.68
2017-05-26T16:10:15.290Z,6.56
2017-05-26T16:12:41.956Z,6.66
2017-05-26T16:15:08.633Z,7.28
2017-05-26T16:17:35.301Z,6.82
2017-05-26T16:20:01.978Z,6.40
2017-05-26T16:22:28.684Z,6.54
2017-05-26T16:24:55.356Z,6.38
2017-05-26T16:27:22.043Z,5.94
2017-05-26T16:29:48.720Z,5.98
2017-05-26T16:32:15.447Z,5.58
2017-05-26T16:34:42.127Z,5.30
2017-05-26T16:37:08.796Z,6.28
2017-05-26T16:39:35.479Z,6.52
2017-05-26T16:42:02.153Z,5.38
2017-05-26T16:44:28.843Z,5.14
2017-05-26T16:46:55.516Z,5.82
2017-05-26T16:49:22.232Z,5.56
2017-05-26T16:51:48.912Z,6.00
2017-05-26T16:54:15.585Z,6.08
2017-05-26T16:56:42.268Z,5.24
2017-05-26T16:59:08.940Z,5.54
2017-05-26T17:01:35.616Z,5.68
2017-05-26T17:04:02.286Z,5.68
2017-05-26T17:06:28.996Z,5.88
2017-05-26T17:08:55.668Z,5.10
2017-05-26T17:11:22.376Z,6.46
2017-05-26T17:13:49.049Z,6.28
2017-05-26T17:16:15.724Z,5.92
2017-05-26T17:18:42.402Z,6.44
2017-05-26T17:21:09.072Z,7.12
2017-05-26T17:23:35.745Z,6.18
2017-05-26T17:26:02.420Z,6.20
2017-05-26T17:28:29.121Z,6.26
2017-05-26T17:30:55.825Z,6.34
2017-05-26T17:33:22.538Z,6.00
2017-05-26T17:35:49.208Z,6.20
2017-05-26T17:38:15.913Z,6.78
2017-05-26T17:40:42.585Z,6.52
2017-05-26T17:43:09.265Z,6.18
2017-05-26T17:45:35.939Z,6.72
2017-05-26T17:48:02.620Z,5.44
2017-05-26T17:50:29.312Z,6.52
2017-05-26T17:52:56.001Z,6.62
2017-05-26T17:55:22.671Z,6.60
2017-05-26T17:57:49.340Z,6.12
2017-05-26T18:00:16.013Z,5.66
2017-05-26T18:02:42.681Z,6.92
2017-05-26T18:05:09.349Z,5.98
2017-05-26T18:07:36.056Z,5.54
2017-05-26T18:10:02.741Z,6.30
2017-05-26T18:12:29.423Z,10.12
2017-05-26T18:14:56.092Z,6.28
2017-05-26T18:17:22.776Z,6.98
2017-05-26T18:19:49.451Z,7.02
2017-05-26T18:22:16.120Z,7.12
2017-05-26T18:24:42.790Z,6.32
2017-05-26T18:27:09.457Z,6.96
2017-05-26T18:29:36.171Z,7.20
2017-05-26T18:32:02.839Z,7.18
2017-05-26T18:34:29.512Z,8.98
2017-05-26T18:36:56.177Z,9.34
2017-05-26T18:39:22.847Z,7.62
2017-05-26T18:41:49.532Z,7.10
2017-05-26T18:44:16.226Z,6.64
2017-05-26T18:46:42.896Z,6.62
2017-05-26T18:49:09.574Z,6.94
2017-05-26T18:51:36.256Z,6.60
2017-05-26T18:54:02.927Z,6.38
2017-05-26T18:56:29.633Z,6.10
2017-05-26T18:58:56.306Z,7.46
2017-05-26T19:01:22.988Z,6.70
2017-05-26T19:03:49.659Z,5.82
2017-05-26T19:06:16.326Z,8.24
2017-05-26T19:08:42.996Z,5.92
2017-05-26T19:11:09.673Z,6.12
2017-05-26T19:13:36.359Z,5.64
2017-05-26T19:16:03.046Z,6.52
2017-05-26T19:18:29.761Z,6.26
2017-05-26T19:20:56.441Z,7.13
2017-05-26T19:23:23.129Z,11.13
2017-05-26T19:25:49.828Z,10.13
2017-05-26T19:28:16.496Z,9.10
2017-05-26T19:30:43.185Z,9.75
2017-05-26T19:33:09.872Z,9.60
2017-05-26T19:35:36.561Z,10.35
2017-05-26T19:38:03.245Z,8.28
2017-05-26T19:40:29.939Z,8.75
2017-05-26T19:42:56.669Z,8.43
2017-05-26T19:45:23.357Z,8.02
2017-05-26T19:47:50.073Z,8.05
2017-05-26T19:50:16.753Z,6.88
2017-05-26T19:52:43.489Z,8.40
2017-05-26T19:55:10.188Z,7.28
2017-05-26T19:57:36.875Z,8.03
2017-05-26T20:00:03.552Z,8.12
2017-05-26T20:02:30.223Z,9.48
2017-05-26T20:04:56.930Z,8.33
2017-05-26T20:07:23.616Z,11.27
2017-05-26T20:09:50.326Z,8.30
2017-05-26T20:12:17.012Z,9.15
2017-05-26T20:14:43.716Z,9.33
2017-05-26T20:17:10.384Z,9.05
2017-05-26T20:19:37.092Z,9.68
2017-05-26T20:22:03.769Z,9.40
2017-05-26T20:24:30.449Z,11.02
2017-05-26T20:26:57.295Z,9.45
2017-05-26T20:29:23.974Z,10.25
2017-05-26T20:31:50.682Z,10.88
2017-05-26T20:34:17.368Z,11.17
2017-05-26T20:36:44.085Z,11.93
2017-05-26T20:39:10.761Z,10.55
2017-05-26T20:41:37.471Z,9.73
2017-05-26T20:44:04.162Z,10.75
2017-05-26T20:46:30.857Z,13.05
2017-05-26T20:48:57.544Z,12.22
2017-05-26T20:51:24.232Z,12.78
2017-05-26T20:53:50.955Z,11.37
2017-05-26T20:56:17.637Z,11.60
2017-05-26T20:58:44.349Z,12.50
2017-05-26T21:01:11.031Z,11.62
2017-05-26T21:03:37.752Z,11.58
2017-05-26T21:06:04.433Z,11.33
2017-05-26T21:08:31.126Z,10.95
2017-05-26T21:10:57.808Z,10.57
2017-05-26T21:13:24.488Z,10.32
2017-05-26T21:15:51.200Z,11.68
2017-05-26T21:18:17.872Z,10.53
2017-05-26T21:20:44.572Z,10.58
2017-05-26T21:23:11.254Z,10.72
2017-05-26T21:25:37.949Z,12.10
2017-05-26T21:28:04.624Z,10.72
2017-05-26T21:30:31.317Z,12.08
2017-05-26T21:32:58.003Z,11.88
2017-05-26T21:35:24.688Z,11.65
2017-05-26T21:37:51.400Z,11.23
2017-05-26T21:40:18.081Z,12.63
2017-05-26T21:42:44.768Z,11.42
2017-05-26T21:45:11.481Z,13.52
2017-05-26T21:47:38.157Z,9.90
2017-05-26T21:50:04.844Z,10.98
2017-05-26T21:52:31.530Z,11.40
2017-05-26T21:54:58.266Z,11.60
2017-05-26T21:57:24.954Z,10.77
2017-05-26T21:59:51.636Z,10.78
2017-05-26T22:02:18.321Z,11.53
2017-05-26T22:04:45.008Z,12.13
2017-05-26T22:07:11.691Z,10.70
2017-05-26T22:09:38.369Z,10.75
2017-05-26T22:12:05.146Z,10.42
2017-05-26T22:14:31.835Z,10.87
2017-05-26T22:16:58.512Z,9.80
2017-05-26T22:19:25.180Z,9.38
2017-05-26T22:21:51.856Z,10.02
2017-05-26T22:24:18.528Z,10.08
2017-05-26T22:26:45.206Z,9.58
2017-05-26T22:29:11.893Z,10.27
2017-05-26T22:31:38.576Z,9.57
2017-05-26T22:34:05.264Z,11.03
2017-05-26T22:36:31.942Z,9.02
2017-05-26T22:38:58.624Z,10.55
2017-05-26T22:41:25.309Z,10.47
2017-05-26T22:43:52.047Z,10.58
2017-05-26T22:46:18.721Z,9.58
2017-05-26T22:48:45.432Z,10.77
2017-05-26T22:51:12.108Z,10.17
2017-05-26T22:53:38.785Z,9.92
2017-05-26T22:56:05.464Z,11.02
2017-05-26T22:58:32.148Z,10.63
2017-05-26T23:00:58.830Z,10.87
2017-05-26T23:03:25.505Z,10.05
2017-05-26T23:05:52.190Z,10.73
2017-05-26T23:08:18.869Z,10.37
2017-05-26T23:10:45.580Z,11.53
2017-05-26T23:13:12.257Z,9.63
2017-05-26T23:15:38.943Z,10.72
2017-05-26T23:18:05.624Z,11.45
2017-05-26T23:20:32.297Z,10.30
2017-05-26T23:22:58.977Z,12.37
2017-05-26T23:25:25.660Z,12.12
2017-05-26T23:27:52.369Z,12.27
2017-05-26T23:30:19.055Z,11.62
2017-05-26T23:32:45.764Z,10.73
2017-05-26T23:35:12.442Z,10.42
2017-05-26T23:37:39.116Z,11.10
2017-05-26T23:40:05.812Z,10.78
2017-05-26T23:42:32.501Z,11.15
2017-05-26T23:44:59.208Z,11.82
2017-05-26T23:47:25.887Z,12.10
2017-05-26T23:49:53.084Z,13.30
2017-05-26T23:52:19.760Z,12.08
2017-05-26T23:54:46.464Z,11.42
2017-05-26T23:57:13.144Z,11.72
2017-05-26T23:59:40.825Z,11.60
